createdAt,value
2023-02-11T01:48:39.421Z,100.00
2023-02-11T01:54:25.932Z,100.00
2023-02-11T02:00:09.652Z,100.00
2023-02-11T02:05:52.950Z,100.00
2023-02-11T02:11:21.844Z,100.00
2023-02-11T02:16:46.446Z,100.00
2023-02-11T02:22:29.767Z,100.00
2023-02-11T02:28:13.870Z,100.00
2023-02-11T02:33:49.104Z,100.00
2023-02-11T02:39:18.043Z,100.00
2023-02-11T02:44:41.183Z,100.00
2023-02-11T02:50:14.832Z,100.00
2023-02-11T02:55:57.098Z,100.00
2023-02-11T03:01:31.258Z,100.00
2023-02-11T03:07:10.500Z,100.00
2023-02-11T03:12:38.732Z,100.00
2023-02-11T03:18:11.032Z,100.00
2023-02-11T03:23:41.132Z,100.00
2023-02-11T03:29:16.794Z,100.00
2023-02-11T03:34:50.865Z,100.00
2023-02-11T03:40:22.192Z,100.00
2023-02-11T03:45:54.750Z,100.00
2023-02-11T03:51:26.742Z,100.00
2023-02-11T03:57:00.580Z,100.00
2023-02-11T04:02:28.217Z,100.00
2023-02-11T04:07:57.367Z,100.00
2023-02-11T04:13:24.033Z,100.00
2023-02-11T04:18:51.110Z,100.00
2023-02-11T04:24:14.129Z,100.00
2023-02-11T04:29:39.272Z,100.00
2023-02-11T04:35:02.868Z,100.00
2023-02-11T04:40:26.417Z,100.00
2023-02-11T04:45:51.734Z,100.00
2023-02-11T04:51:16.098Z,100.00
2023-02-11T04:56:39.566Z,100.00
2023-02-11T05:02:04.218Z,100.00
2023-02-11T05:07:27.661Z,100.00
2023-02-11T05:12:51.047Z,100.00
2023-02-11T05:18:15.977Z,100.00
2023-02-11T05:23:40.281Z,100.00
2023-02-11T05:29:04.383Z,100.00
2023-02-11T05:34:29.446Z,100.00
2023-02-11T05:39:52.839Z,100.00
2023-02-11T05:45:15.024Z,89.03
2023-02-11T05:50:45.806Z,83.59
2023-02-11T05:56:10.610Z,76.71
2023-02-11T06:01:35.100Z,72.90
2023-02-11T06:07:14.608Z,70.81
2023-02-11T06:13:00.238Z,65.02
2023-02-11T06:18:48.926Z,62.19
2023-02-11T06:25:00.228Z,60.90
2023-02-11T06:30:35.782Z,56.36
2023-02-11T06:36:29.797Z,53.75
2023-02-11T06:42:18.595Z,51.88
2023-02-11T06:48:01.799Z,49.34
2023-02-11T06:53:28.684Z,48.49
2023-02-11T06:58:59.084Z,46.78
2023-02-11T07:04:28.810Z,45.70
2023-02-11T07:09:52.531Z,44.49
2023-02-11T07:15:20.977Z,43.68
2023-02-11T07:20:44.827Z,44.87
2023-02-11T07:26:12.256Z,48.34
2023-02-11T07:31:42.502Z,48.49
2023-02-11T07:37:11.276Z,47.17
2023-02-11T07:42:35.701Z,46.10
2023-02-11T07:47:59.680Z,45.24
2023-02-11T07:53:24.820Z,44.28
2023-02-11T07:58:53.762Z,44.13
2023-02-11T08:04:24.545Z,45.92
2023-02-11T08:09:54.386Z,43.59
2023-02-11T08:15:19.691Z,42.13
2023-02-11T08:20:50.005Z,42.91
2023-02-11T08:26:21.662Z,42.70
2023-02-11T08:31:49.717Z,44.90
2023-02-11T08:37:14.511Z,46.65
2023-02-11T08:42:37.982Z,49.51
2023-02-11T08:48:00.400Z,52.76
2023-02-11T08:53:30.541Z,55.33
2023-02-11T08:58:59.244Z,56.61
2023-02-11T09:04:23.712Z,56.35
2023-02-11T09:09:49.515Z,56.06
2023-02-11T09:15:12.974Z,58.39
2023-02-11T09:20:39.957Z,59.98
2023-02-11T09:26:09.468Z,61.99
2023-02-11T09:31:35.338Z,63.90
2023-02-11T09:36:58.694Z,62.73
2023-02-11T09:42:51.662Z,62.85
2023-02-11T09:48:16.863Z,64.66
2023-02-11T09:53:44.420Z,65.65
2023-02-11T09:59:12.370Z,67.91
2023-02-11T10:04:59.823Z,69.21
2023-02-11T10:10:42.184Z,69.02
2023-02-11T10:16:25.046Z,69.90
2023-02-11T10:22:04.432Z,71.39
2023-02-11T10:27:37.090Z,71.90
2023-02-11T10:33:07.883Z,72.19
2023-02-11T10:38:33.075Z,72.05
2023-02-11T10:44:03.259Z,72.29
2023-02-11T10:49:37.506Z,73.44
2023-02-11T10:55:16.298Z,73.11
2023-02-11T11:00:53.072Z,72.08
2023-02-11T11:06:31.621Z,72.28
2023-02-11T11:12:01.379Z,73.49
2023-02-11T11:17:30.167Z,72.42
2023-02-11T11:23:11.263Z,75.12
2023-02-11T11:28:41.298Z,76.15
2023-02-11T11:34:23.402Z,77.08
2023-02-11T11:39:58.200Z,78.41
2023-02-11T11:45:28.286Z,81.22
2023-02-11T11:50:57.324Z,81.91
2023-02-11T11:56:25.431Z,82.45
2023-02-11T12:02:17.825Z,84.36
2023-02-11T12:08:01.022Z,86.36
2023-02-11T12:13:47.075Z,88.29
2023-02-11T12:19:39.734Z,87.32
2023-02-11T12:25:27.413Z,89.05
2023-02-11T12:31:13.319Z,91.77
2023-02-11T12:36:55.509Z,93.21
2023-02-11T12:42:55.690Z,94.65
2023-02-11T12:48:37.004Z,96.60
2023-02-11T12:54:21.821Z,99.90
2023-02-11T13:00:00.928Z,100.00
2023-02-11T13:05:39.220Z,100.00
2023-02-11T13:11:15.000Z,100.00
2023-02-11T13:16:42.861Z,100.00
2023-02-11T13:22:18.754Z,100.00
2023-02-11T13:27:58.667Z,100.00
2023-02-11T13:33:34.588Z,100.00
2023-02-11T13:39:03.938Z,100.00
2023-02-11T13:44:28.696Z,100.00
2023-02-11T13:49:58.621Z,100.00
2023-02-11T13:55:27.733Z,100.00
2023-02-11T14:00:59.227Z,100.00
2023-02-11T14:06:45.239Z,100.00
2023-02-11T14:12:41.362Z,100.00
2023-02-11T14:18:39.056Z,100.00
2023-02-11T14:24:47.272Z,100.00
2023-02-11T14:30:51.528Z,100.00
2023-02-11T14:37:01.524Z,100.00
2023-02-11T14:42:31.105Z,100.00
2023-02-11T14:48:15.649Z,100.00
2023-02-11T14:54:03.923Z,100.00
2023-02-11T14:59:40.349Z,100.00
2023-02-11T15:05:21.589Z,100.00
2023-02-11T15:10:53.029Z,100.00
2023-02-11T15:16:24.463Z,100.00
2023-02-11T15:21:53.874Z,100.00
2023-02-11T15:27:26.778Z,100.00
2023-02-11T15:33:06.092Z,100.00
2023-02-11T15:38:43.041Z,100.00
2023-02-11T15:44:08.548Z,100.00
2023-02-11T15:49:51.662Z,100.00
2023-02-11T15:55:53.185Z,100.00
2023-02-11T16:01:34.077Z,100.00
2023-02-11T16:07:08.632Z,100.00
2023-02-11T16:12:39.137Z,100.00
2023-02-11T16:18:45.271Z,100.00
2023-02-11T16:24:28.858Z,100.00
2023-02-11T16:30:10.473Z,100.00
2023-02-11T16:35:38.915Z,100.00
2023-02-11T16:41:12.777Z,100.00
2023-02-11T16:46:40.462Z,100.00
2023-02-11T16:52:08.924Z,100.00
2023-02-11T16:57:33.810Z,100.00
2023-02-11T17:02:59.470Z,100.00
2023-02-11T17:08:23.473Z,100.00
2023-02-11T17:13:47.896Z,100.00
2023-02-11T17:19:15.992Z,100.00
2023-02-11T17:24:39.934Z,100.00
2023-02-11T17:30:03.541Z,100.00
2023-02-11T17:35:35.639Z,100.00
2023-02-11T17:41:10.280Z,100.00
2023-02-11T17:46:40.520Z,100.00
2023-02-11T17:52:07.306Z,100.00
2023-02-11T17:57:31.928Z,100.00
2023-02-11T18:03:03.007Z,100.00
2023-02-11T18:08:33.883Z,100.00
2023-02-11T18:14:00.311Z,100.00
2023-02-11T18:19:33.108Z,100.00
2023-02-11T18:25:04.327Z,100.00
2023-02-11T18:30:34.988Z,100.00
2023-02-11T18:36:01.737Z,100.00
2023-02-11T18:41:28.891Z,100.00
2023-02-11T18:46:52.905Z,100.00
2023-02-11T18:52:19.827Z,100.00
2023-02-11T18:57:45.215Z,100.00
2023-02-11T19:03:09.904Z,100.00
2023-02-11T19:08:34.098Z,100.00
2023-02-11T19:13:59.125Z,100.00
2023-02-11T19:19:29.844Z,100.00
2023-02-11T19:25:06.217Z,100.00
2023-02-11T19:30:38.504Z,100.00
2023-02-11T19:36:10.201Z,100.00
2023-02-11T19:41:36.809Z,100.00
2023-02-11T19:47:01.823Z,100.00
2023-02-11T19:52:39.252Z,100.00
2023-02-11T19:58:09.070Z,100.00
2023-02-11T20:03:42.471Z,100.00
2023-02-11T20:09:15.190Z,100.00
2023-02-11T20:14:49.247Z,100.00
2023-02-11T20:20:28.942Z,100.00
2023-02-11T20:26:16.780Z,100.00
2023-02-11T20:31:49.955Z,100.00
2023-02-11T20:37:15.657Z,100.00
2023-02-11T20:42:41.469Z,100.00
2023-02-11T20:48:11.236Z,100.00
2023-02-11T20:53:48.616Z,100.00
2023-02-11T20:59:19.816Z,100.00
2023-02-11T21:04:44.295Z,100.00
2023-02-11T21:10:14.668Z,100.00
2023-02-11T21:15:38.006Z,100.00
2023-02-11T21:21:02.227Z,100.00
2023-02-11T21:26:32.776Z,100.00
2023-02-11T21:32:01.712Z,100.00
2023-02-11T21:37:30.552Z,100.00
2023-02-11T21:42:57.951Z,100.00
2023-02-11T21:48:21.447Z,100.00
2023-02-11T21:53:54.495Z,100.00
2023-02-11T21:59:24.815Z,100.00
2023-02-11T22:04:53.714Z,100.00
2023-02-11T22:10:22.597Z,100.00
2023-02-11T22:16:00.348Z,100.00
2023-02-11T22:21:29.821Z,100.00
2023-02-11T22:26:53.560Z,100.00
2023-02-11T22:32:24.120Z,100.00
2023-02-11T22:37:47.913Z,100.00
2023-02-11T22:43:16.339Z,100.00
2023-02-11T22:48:47.571Z,100.00
2023-02-11T22:54:18.395Z,100.00
2023-02-11T22:59:47.535Z,100.00
2023-02-11T23:05:14.306Z,100.00
2023-02-11T23:10:43.734Z,100.00
2023-02-11T23:16:15.771Z,100.00
2023-02-11T23:21:42.279Z,100.00
2023-02-11T23:27:07.042Z,100.00
2023-02-11T23:32:39.143Z,100.00
2023-02-11T23:38:04.901Z,100.00
2023-02-11T23:43:32.940Z,100.00
2023-02-11T23:48:57.830Z,100.00
2023-02-11T23:54:24.388Z,100.00
2023-02-11T23:59:53.710Z,100.00
